sensor_id;sensor_type;location;lat;lon;timestamp;pressure;altitude;pressure_sealevel;temperature;humidity
27294;BME280;14785;52.556;13.430;2023-09-12T00:00:12;100363.69;;;24.68;100.00
27294;BME280;14785;52.556;13.430;2023-09-12T00:02:37;100364.97;;;24.65;100.00
27294;BME280;14785;52.556;13.430;2023-09-12T00:05:03;100358.91;;;24.58;100.00
27294;BME280;14785;52.556;13.430;2023-09-12T00:07:29;100370.78;;;24.52;100.00
27294;BME280;14785;52.556;13.430;2023-09-12T00:09:55;100367.53;;;24.50;100.00
27294;BME280;14785;52.556;13.430;2023-09-12T00:12:22;100365.31;;;24.47;100.00
27294;BME280;14785;52.556;13.430;2023-09-12T00:14:50;100360.25;;;24.56;100.00
27294;BME280;14785;52.556;13.430;2023-09-12T00:17:16;100364.81;;;24.72;100.00
27294;BME280;14785;52.556;13.430;2023-09-12T00:19:42;100365.16;;;24.59;100.00
27294;BME280;14785;52.556;13.430;2023-09-12T00:22:08;100368.91;;;24.74;100.00
27294;BME280;14785;52.556;13.430;2023-09-12T00:24:33;100364.72;;;24.67;100.00
27294;BME280;14785;52.556;13.430;2023-09-12T00:26:59;100370.94;;;24.62;100.00
27294;BME280;14785;52.556;13.430;2023-09-12T00:29:24;100369.91;;;24.47;100.00
27294;BME280;14785;52.556;13.430;2023-09-12T00:31:49;100366.81;;;24.60;100.00
27294;BME280;14785;52.556;13.430;2023-09-12T00:34:18;100366.94;;;24.48;100.00
27294;BME280;14785;52.556;13.430;2023-09-12T00:36:43;100368.47;;;24.39;100.00
27294;BME280;14785;52.556;13.430;2023-09-12T00:39:09;100373.38;;;24.20;100.00
27294;BME280;14785;52.556;13.430;2023-09-12T00:41:35;100369.59;;;24.43;100.00
27294;BME280;14785;52.556;13.430;2023-09-12T00:44:00;100369.41;;;24.28;100.00
27294;BME280;14785;52.556;13.430;2023-09-12T00:46:26;100376.84;;;24.16;100.00
27294;BME280;14785;52.556;13.430;2023-09-12T00:48:53;100373.50;;;24.09;100.00
27294;BME280;14785;52.556;13.430;2023-09-12T00:51:19;100368.41;;;24.34;100.00
27294;BME280;14785;52.556;13.430;2023-09-12T00:53:47;100373.09;;;24.17;100.00
27294;BME280;14785;52.556;13.430;2023-09-12T00:56:13;100372.19;;;24.33;100.00
27294;BME280;14785;52.556;13.430;2023-09-12T00:58:39;100371.50;;;24.43;100.00
27294;BME280;14785;52.556;13.430;2023-09-12T01:01:04;100376.13;;;24.42;100.00
27294;BME280;14785;52.556;13.430;2023-09-12T01:03:30;100366.38;;;24.46;100.00
27294;BME280;14785;52.556;13.430;2023-09-12T01:05:58;100360.69;;;24.69;100.00
27294;BME280;14785;52.556;13.430;2023-09-12T01:08:24;100369.13;;;24.68;100.00
27294;BME280;14785;52.556;13.430;2023-09-12T01:10:52;100375.16;;;24.75;100.00
27294;BME280;14785;52.556;13.430;2023-09-12T01:13:18;100365.63;;;24.72;100.00
27294;BME280;14785;52.556;13.430;2023-09-12T01:15:44;100366.25;;;24.58;100.00
27294;BME280;14785;52.556;13.430;2023-09-12T01:18:09;100370.75;;;24.69;100.00
27294;BME280;14785;52.556;13.430;2023-09-12T01:20:36;100366.88;;;24.43;100.00
27294;BME280;14785;52.556;13.430;2023-09-12T01:28:30;100368.34;;;24.29;100.00
27294;BME280;14785;52.556;13.430;2023-09-12T01:30:58;100362.88;;;24.51;100.00
27294;BME280;14785;52.556;13.430;2023-09-12T01:33:23;100366.66;;;24.66;100.00
27294;BME280;14785;52.556;13.430;2023-09-12T01:35:49;100367.81;;;24.54;100.00
27294;BME280;14785;52.556;13.430;2023-09-12T01:38:15;100370.59;;;24.37;100.00
27294;BME280;14785;52.556;13.430;2023-09-12T01:40:51;100370.69;;;24.42;100.00
27294;BME280;14785;52.556;13.430;2023-09-12T01:43:20;100372.59;;;24.20;100.00
27294;BME280;14785;52.556;13.430;2023-09-12T01:45:49;100363.97;;;24.06;100.00
27294;BME280;14785;52.556;13.430;2023-09-12T01:48:19;100363.22;;;23.94;100.00
27294;BME280;14785;52.556;13.430;2023-09-12T01:50:45;100357.91;;;24.21;100.00
27294;BME280;14785;52.556;13.430;2023-09-12T01:53:12;100365.78;;;23.84;100.00
27294;BME280;14785;52.556;13.430;2023-09-12T01:55:40;100367.53;;;23.74;100.00
27294;BME280;14785;52.556;13.430;2023-09-12T01:58:06;100358.78;;;24.05;100.00
27294;BME280;14785;52.556;13.430;2023-09-12T02:00:33;100362.22;;;24.17;100.00
27294;BME280;14785;52.556;13.430;2023-09-12T02:02:58;100359.50;;;24.17;100.00
27294;BME280;14785;52.556;13.430;2023-09-12T02:05:23;100358.84;;;24.10;100.00
27294;BME280;14785;52.556;13.430;2023-09-12T02:07:49;100359.88;;;24.25;100.00
27294;BME280;14785;52.556;13.430;2023-09-12T02:10:15;100358.41;;;24.18;100.00
27294;BME280;14785;52.556;13.430;2023-09-12T02:12:40;100352.03;;;24.29;100.00
27294;BME280;14785;52.556;13.430;2023-09-12T02:15:07;100346.53;;;24.24;100.00
27294;BME280;14785;52.556;13.430;2023-09-12T02:17:32;100348.31;;;24.35;100.00
27294;BME280;14785;52.556;13.430;2023-09-12T02:19:58;100343.00;;;24.02;100.00
27294;BME280;14785;52.556;13.430;2023-09-12T02:22:23;100348.66;;;24.00;100.00
27294;BME280;14785;52.556;13.430;2023-09-12T02:24:49;100343.94;;;24.12;100.00
27294;BME280;14785;52.556;13.430;2023-09-12T02:27:15;100343.00;;;24.02;100.00
27294;BME280;14785;52.556;13.430;2023-09-12T02:29:41;100345.25;;;23.93;100.00
27294;BME280;14785;52.556;13.430;2023-09-12T02:32:07;100348.59;;;23.95;100.00
27294;BME280;14785;52.556;13.430;2023-09-12T02:34:33;100349.22;;;23.86;100.00
27294;BME280;14785;52.556;13.430;2023-09-12T02:36:58;100345.03;;;23.95;100.00
27294;BME280;14785;52.556;13.430;2023-09-12T02:39:23;100337.66;;;23.74;100.00
27294;BME280;14785;52.556;13.430;2023-09-12T02:41:50;100337.88;;;23.89;100.00
27294;BME280;14785;52.556;13.430;2023-09-12T02:44:15;100338.56;;;23.96;100.00
27294;BME280;14785;52.556;13.430;2023-09-12T02:46:41;100335.00;;;23.79;100.00
27294;BME280;14785;52.556;13.430;2023-09-12T02:49:06;100335.25;;;23.77;100.00
27294;BME280;14785;52.556;13.430;2023-09-12T02:51:32;100334.75;;;23.80;100.00
27294;BME280;14785;52.556;13.430;2023-09-12T02:53:58;100331.97;;;23.75;100.00
27294;BME280;14785;52.556;13.430;2023-09-12T02:56:24;100336.09;;;23.78;100.00
27294;BME280;14785;52.556;13.430;2023-09-12T02:58:49;100334.94;;;23.74;100.00
27294;BME280;14785;52.556;13.430;2023-09-12T03:01:19;100329.84;;;23.61;100.00
27294;BME280;14785;52.556;13.430;2023-09-12T03:03:49;100324.38;;;23.56;100.00
27294;BME280;14785;52.556;13.430;2023-09-12T03:06:15;100324.97;;;23.79;100.00
27294;BME280;14785;52.556;13.430;2023-09-12T03:08:41;100318.25;;;23.65;100.00
27294;BME280;14785;52.556;13.430;2023-09-12T03:11:06;100322.22;;;23.58;100.00
27294;BME280;14785;52.556;13.430;2023-09-12T03:13:36;100327.41;;;23.43;100.00
27294;BME280;14785;52.556;13.430;2023-09-12T03:16:02;100323.19;;;23.19;100.00
27294;BME280;14785;52.556;13.430;2023-09-12T03:18:27;100325.25;;;23.12;100.00
27294;BME280;14785;52.556;13.430;2023-09-12T03:20:53;100322.75;;;22.94;100.00
27294;BME280;14785;52.556;13.430;2023-09-12T03:23:21;100319.41;;;22.87;100.00
27294;BME280;14785;52.556;13.430;2023-09-12T03:25:47;100322.03;;;22.98;100.00
27294;BME280;14785;52.556;13.430;2023-09-12T03:28:12;100313.94;;;23.31;100.00
27294;BME280;14785;52.556;13.430;2023-09-12T03:30:38;100323.16;;;23.47;100.00
27294;BME280;14785;52.556;13.430;2023-09-12T03:33:04;100316.72;;;23.53;100.00
27294;BME280;14785;52.556;13.430;2023-09-12T03:35:31;100325.13;;;23.35;100.00
27294;BME280;14785;52.556;13.430;2023-09-12T03:37:56;100321.66;;;23.23;100.00
27294;BME280;14785;52.556;13.430;2023-09-12T03:40:22;100327.66;;;23.25;100.00
27294;BME280;14785;52.556;13.430;2023-09-12T03:42:47;100322.13;;;23.20;100.00
27294;BME280;14785;52.556;13.430;2023-09-12T03:45:12;100329.47;;;23.36;100.00
27294;BME280;14785;52.556;13.430;2023-09-12T03:47:38;100336.28;;;23.38;100.00
27294;BME280;14785;52.556;13.430;2023-09-12T03:50:04;100328.34;;;23.32;100.00
27294;BME280;14785;52.556;13.430;2023-09-12T03:52:29;100334.31;;;23.34;100.00
27294;BME280;14785;52.556;13.430;2023-09-12T03:54:55;100334.50;;;23.44;100.00
27294;BME280;14785;52.556;13.430;2023-09-12T03:57:20;100341.22;;;23.25;100.00
27294;BME280;14785;52.556;13.430;2023-09-12T03:59:46;100335.94;;;23.02;100.00
27294;BME280;14785;52.556;13.430;2023-09-12T04:02:12;100340.06;;;23.21;100.00
27294;BME280;14785;52.556;13.430;2023-09-12T04:04:38;100342.91;;;22.98;100.00
27294;BME280;14785;52.556;13.430;2023-09-12T04:07:04;100346.91;;;22.79;100.00
27294;BME280;14785;52.556;13.430;2023-09-12T04:09:29;100344.38;;;22.61;100.00
27294;BME280;14785;52.556;13.430;2023-09-12T04:11:55;100337.50;;;22.70;100.00
27294;BME280;14785;52.556;13.430;2023-09-12T04:14:21;100335.94;;;23.02;100.00
27294;BME280;14785;52.556;13.430;2023-09-12T04:16:46;100345.97;;;23.18;100.00
27294;BME280;14785;52.556;13.430;2023-09-12T04:19:13;100341.50;;;22.95;100.00
27294;BME280;14785;52.556;13.430;2023-09-12T04:21:39;100340.19;;;23.14;100.00
27294;BME280;14785;52.556;13.430;2023-09-12T04:24:05;100341.22;;;23.25;100.00
27294;BME280;14785;52.556;13.430;2023-09-12T04:26:31;100341.84;;;22.99;100.00
27294;BME280;14785;52.556;13.430;2023-09-12T04:28:56;100344.47;;;22.94;100.00
27294;BME280;14785;52.556;13.430;2023-09-12T04:31:27;100335.81;;;23.25;100.00
27294;BME280;14785;52.556;13.430;2023-09-12T04:33:54;100338.94;;;23.33;100.00
27294;BME280;14785;52.556;13.430;2023-09-12T04:36:20;100338.13;;;23.33;100.00
27294;BME280;14785;52.556;13.430;2023-09-12T04:38:46;100346.50;;;23.31;100.00
27294;BME280;14785;52.556;13.430;2023-09-12T04:41:12;100340.97;;;23.43;100.00
27294;BME280;14785;52.556;13.430;2023-09-12T04:43:43;100350.91;;;23.21;100.00
27294;BME280;14785;52.556;13.430;2023-09-12T04:46:10;100348.44;;;23.19;100.00
27294;BME280;14785;52.556;13.430;2023-09-12T04:48:38;100341.75;;;22.94;100.00
27294;BME280;14785;52.556;13.430;2023-09-12T04:51:04;100349.25;;;23.03;100.00
27294;BME280;14785;52.556;13.430;2023-09-12T04:53:30;100343.66;;;23.10;100.00
27294;BME280;14785;52.556;13.430;2023-09-12T04:56:02;100346.34;;;23.38;100.00
27294;BME280;14785;52.556;13.430;2023-09-12T04:58:28;100342.66;;;23.16;100.00
27294;BME280;14785;52.556;13.430;2023-09-12T05:00:54;100345.03;;;23.24;100.00
27294;BME280;14785;52.556;13.430;2023-09-12T05:03:20;100345.47;;;23.21;100.00
27294;BME280;14785;52.556;13.430;2023-09-12T05:05:47;100353.34;;;23.06;100.00
27294;BME280;14785;52.556;13.430;2023-09-12T05:08:12;100351.47;;;23.06;100.00
27294;BME280;14785;52.556;13.430;2023-09-12T05:10:38;100354.84;;;23.13;100.00
27294;BME280;14785;52.556;13.430;2023-09-12T05:13:04;100351.69;;;22.88;100.00
27294;BME280;14785;52.556;13.430;2023-09-12T05:15:30;100345.38;;;23.16;100.00
27294;BME280;14785;52.556;13.430;2023-09-12T05:17:55;100355.34;;;23.10;100.00
27294;BME280;14785;52.556;13.430;2023-09-12T05:20:21;100352.34;;;22.95;100.00
27294;BME280;14785;52.556;13.430;2023-09-12T05:22:46;100359.13;;;22.81;100.00
27294;BME280;14785;52.556;13.430;2023-09-12T05:25:12;100362.25;;;23.18;100.00
27294;BME280;14785;52.556;13.430;2023-09-12T05:27:38;100352.38;;;23.12;100.00
27294;BME280;14785;52.556;13.430;2023-09-12T05:30:04;100357.53;;;22.97;100.00
27294;BME280;14785;52.556;13.430;2023-09-12T05:32:29;100364.69;;;23.03;100.00
27294;BME280;14785;52.556;13.430;2023-09-12T05:34:55;100367.38;;;23.31;100.00
27294;BME280;14785;52.556;13.430;2023-09-12T05:37:20;100366.47;;;23.75;100.00
27294;BME280;14785;52.556;13.430;2023-09-12T05:39:46;100368.34;;;23.91;100.00
27294;BME280;14785;52.556;13.430;2023-09-12T05:42:11;100375.47;;;23.59;100.00
27294;BME280;14785;52.556;13.430;2023-09-12T05:44:37;100372.03;;;23.85;100.00
27294;BME280;14785;52.556;13.430;2023-09-12T05:47:03;100372.50;;;23.44;100.00
27294;BME280;14785;52.556;13.430;2023-09-12T05:49:28;100371.81;;;23.37;100.00
27294;BME280;14785;52.556;13.430;2023-09-12T05:51:54;100365.59;;;23.53;100.00
27294;BME280;14785;52.556;13.430;2023-09-12T05:54:19;100365.47;;;23.81;100.00
27294;BME280;14785;52.556;13.430;2023-09-12T05:56:45;100378.31;;;24.02;100.00
27294;BME280;14785;52.556;13.430;2023-09-12T05:59:12;100379.66;;;24.21;100.00
27294;BME280;14785;52.556;13.430;2023-09-12T06:01:38;100366.13;;;24.26;100.00
27294;BME280;14785;52.556;13.430;2023-09-12T06:04:04;100373.09;;;24.17;100.00
27294;BME280;14785;52.556;13.430;2023-09-12T06:06:30;100367.88;;;23.61;100.00
27294;BME280;14785;52.556;13.430;2023-09-12T06:08:55;100366.09;;;23.50;100.00
27294;BME280;14785;52.556;13.430;2023-09-12T06:11:21;100378.97;;;23.76;100.00
27294;BME280;14785;52.556;13.430;2023-09-12T06:13:47;100383.97;;;24.17;100.00
27294;BME280;14785;52.556;13.430;2023-09-12T06:16:12;100393.81;;;24.23;100.00
27294;BME280;14785;52.556;13.430;2023-09-12T06:18:38;100395.16;;;24.04;100.00
27294;BME280;14785;52.556;13.430;2023-09-12T06:21:03;100389.28;;;23.24;100.00
27294;BME280;14785;52.556;13.430;2023-09-12T06:23:30;100389.72;;;23.21;100.00
27294;BME280;14785;52.556;13.430;2023-09-12T06:25:56;100388.91;;;23.21;100.00
27294;BME280;14785;52.556;13.430;2023-09-12T06:28:29;100381.53;;;23.66;100.00
27294;BME280;14785;52.556;13.430;2023-09-12T06:30:55;100382.69;;;23.70;100.00
27294;BME280;14785;52.556;13.430;2023-09-12T06:33:22;100375.50;;;24.35;100.00
27294;BME280;14785;52.556;13.430;2023-09-12T06:35:49;100386.81;;;24.97;100.00
27294;BME280;14785;52.556;13.430;2023-09-12T06:38:15;100393.63;;;24.08;100.00
27294;BME280;14785;52.556;13.430;2023-09-12T06:40:42;100393.19;;;23.83;100.00
27294;BME280;14785;52.556;13.430;2023-09-12T06:43:08;100394.56;;;24.83;100.00
27294;BME280;14785;52.556;13.430;2023-09-12T06:45:34;100401.19;;;24.44;100.00
27294;BME280;14785;52.556;13.430;2023-09-12T06:48:02;100402.00;;;24.66;100.00
27294;BME280;14785;52.556;13.430;2023-09-12T06:50:27;100392.75;;;25.15;100.00
27294;BME280;14785;52.556;13.430;2023-09-12T06:52:52;100406.31;;;25.37;100.00
27294;BME280;14785;52.556;13.430;2023-09-12T06:55:18;100405.59;;;24.93;100.00
27294;BME280;14785;52.556;13.430;2023-09-12T06:57:43;100411.16;;;24.60;100.00
27294;BME280;14785;52.556;13.430;2023-09-12T07:00:11;100411.63;;;25.00;100.00
27294;BME280;14785;52.556;13.430;2023-09-12T07:02:36;100414.44;;;24.62;100.00
27294;BME280;14785;52.556;13.430;2023-09-12T07:05:02;100422.84;;;24.39;100.00
27294;BME280;14785;52.556;13.430;2023-09-12T07:07:29;100407.22;;;24.51;100.00
27294;BME280;14785;52.556;13.430;2023-09-12T07:09:54;100421.25;;;24.43;100.00
27294;BME280;14785;52.556;13.430;2023-09-12T07:12:20;100420.56;;;24.31;100.00
27294;BME280;14785;52.556;13.430;2023-09-12T07:14:45;100410.84;;;24.35;100.00
27294;BME280;14785;52.556;13.430;2023-09-12T07:17:10;100410.97;;;24.67;100.00
27294;BME280;14785;52.556;13.430;2023-09-12T07:19:37;100419.78;;;24.74;100.00
27294;BME280;14785;52.556;13.430;2023-09-12T07:22:03;100417.69;;;24.59;100.00
27294;BME280;14785;52.556;13.430;2023-09-12T07:24:28;100415.31;;;24.89;100.00
27294;BME280;14785;52.556;13.430;2023-09-12T07:26:55;100428.66;;;24.91;100.00
27294;BME280;14785;52.556;13.430;2023-09-12T07:29:20;100415.09;;;24.69;100.00
27294;BME280;14785;52.556;13.430;2023-09-12T07:31:46;100411.22;;;24.87;100.00
27294;BME280;14785;52.556;13.430;2023-09-12T07:34:11;100410.81;;;25.26;100.00
27294;BME280;14785;52.556;13.430;2023-09-12T07:36:40;100410.84;;;25.31;100.00
27294;BME280;14785;52.556;13.430;2023-09-12T07:39:06;100408.50;;;25.71;100.00
27294;BME280;14785;52.556;13.430;2023-09-12T07:41:32;100405.00;;;26.13;100.00
27294;BME280;14785;52.556;13.430;2023-09-12T07:43:57;100417.09;;;26.27;100.00
27294;BME280;14785;52.556;13.430;2023-09-12T07:46:23;100404.63;;;26.46;100.00
27294;BME280;14785;52.556;13.430;2023-09-12T07:48:48;100401.78;;;26.21;100.00
27294;BME280;14785;52.556;13.430;2023-09-12T07:51:14;100401.84;;;26.36;100.00
27294;BME280;14785;52.556;13.430;2023-09-12T07:53:42;100404.78;;;26.86;100.00
27294;BME280;14785;52.556;13.430;2023-09-12T07:56:09;100402.09;;;27.11;100.00
27294;BME280;14785;52.556;13.430;2023-09-12T07:58:35;100405.91;;;26.95;100.00
27294;BME280;14785;52.556;13.430;2023-09-12T08:01:05;100406.63;;;26.13;100.00
27294;BME280;14785;52.556;13.430;2023-09-12T08:03:31;100427.28;;;25.99;100.00
27294;BME280;14785;52.556;13.430;2023-09-12T08:05:58;100422.22;;;25.81;100.00
27294;BME280;14785;52.556;13.430;2023-09-12T08:08:24;100417.44;;;25.98;100.00
27294;BME280;14785;52.556;13.430;2023-09-12T08:10:49;100424.03;;;26.07;100.00
27294;BME280;14785;52.556;13.430;2023-09-12T08:13:16;100417.22;;;25.73;100.00
27294;BME280;14785;52.556;13.430;2023-09-12T08:15:41;100415.19;;;25.95;100.00
27294;BME280;14785;52.556;13.430;2023-09-12T08:18:07;100418.44;;;25.92;100.00
27294;BME280;14785;52.556;13.430;2023-09-12T08:20:32;100423.28;;;25.80;100.00
27294;BME280;14785;52.556;13.430;2023-09-12T08:22:58;100411.41;;;25.96;100.00
27294;BME280;14785;52.556;13.430;2023-09-12T08:25:23;100418.06;;;26.05;100.00
27294;BME280;14785;52.556;13.430;2023-09-12T08:27:49;100424.03;;;26.07;100.00
27294;BME280;14785;52.556;13.430;2023-09-12T08:30:15;100421.47;;;26.33;100.00
27294;BME280;14785;52.556;13.430;2023-09-12T08:32:41;100420.34;;;26.80;100.00
27294;BME280;14785;52.556;13.430;2023-09-12T08:35:10;100417.03;;;26.73;100.00
27294;BME280;14785;52.556;13.430;2023-09-12T08:37:37;100424.84;;;26.55;100.00
27294;BME280;14785;52.556;13.430;2023-09-12T08:40:03;100421.13;;;26.66;100.00
27294;BME280;14785;52.556;13.430;2023-09-12T08:42:38;100419.47;;;26.65;100.00
27294;BME280;14785;52.556;13.430;2023-09-12T08:45:08;100415.78;;;27.06;100.00
27294;BME280;14785;52.556;13.430;2023-09-12T08:47:39;100425.13;;;27.55;100.00
27294;BME280;14785;52.556;13.430;2023-09-12T08:50:06;100424.84;;;27.81;100.00
27294;BME280;14785;52.556;13.430;2023-09-12T08:52:32;100431.13;;;27.32;100.00
27294;BME280;14785;52.556;13.430;2023-09-12T08:54:57;100427.03;;;28.20;100.00
27294;BME280;14785;52.556;13.430;2023-09-12T08:57:23;100426.25;;;27.69;100.00
27294;BME280;14785;52.556;13.430;2023-09-12T08:59:50;100428.41;;;27.77;100.00
27294;BME280;14785;52.556;13.430;2023-09-12T09:02:16;100432.78;;;27.78;100.00
27294;BME280;14785;52.556;13.430;2023-09-12T09:04:42;100441.00;;;27.58;100.00
27294;BME280;14785;52.556;13.430;2023-09-12T09:07:11;100437.69;;;27.81;100.00
27294;BME280;14785;52.556;13.430;2023-09-12T09:09:38;100437.19;;;27.89;100.00
27294;BME280;14785;52.556;13.430;2023-09-12T09:12:07;100445.50;;;28.68;100.00
27294;BME280;14785;52.556;13.430;2023-09-12T09:14:33;100436.09;;;27.60;100.00
27294;BME280;14785;52.556;13.430;2023-09-12T09:16:58;100434.44;;;27.64;100.00
27294;BME280;14785;52.556;13.430;2023-09-12T09:19:40;100450.81;;;27.99;100.00
27294;BME280;14785;52.556;13.430;2023-09-12T09:22:06;100456.31;;;28.04;100.00
27294;BME280;14785;52.556;13.430;2023-09-12T09:24:31;100439.59;;;28.21;100.00
27294;BME280;14785;52.556;13.430;2023-09-12T09:26:57;100448.34;;;27.82;100.00
27294;BME280;14785;52.556;13.430;2023-09-12T09:29:25;100458.47;;;27.42;100.00
27294;BME280;14785;52.556;13.430;2023-09-12T09:31:51;100456.31;;;27.89;100.00
27294;BME280;14785;52.556;13.430;2023-09-12T09:34:20;100457.94;;;27.90;100.00
27294;BME280;14785;52.556;13.430;2023-09-12T09:36:51;100466.16;;;27.90;100.00
27294;BME280;14785;52.556;13.430;2023-09-12T09:39:21;100472.13;;;27.37;100.00
27294;BME280;14785;52.556;13.430;2023-09-12T09:41:52;100457.91;;;27.30;100.00
27294;BME280;14785;52.556;13.430;2023-09-12T09:44:18;100464.47;;;27.39;100.00
27294;BME280;14785;52.556;13.430;2023-09-12T09:46:46;100489.59;;;27.31;100.00
27294;BME280;14785;52.556;13.430;2023-09-12T09:49:16;100464.69;;;26.56;100.00
27294;BME280;14785;52.556;13.430;2023-09-12T09:51:44;100460.09;;;27.28;100.00
27294;BME280;14785;52.556;13.430;2023-09-12T09:54:09;100457.09;;;27.39;100.00
27294;BME280;14785;52.556;13.430;2023-09-12T09:57:04;100463.66;;;27.38;100.00
27294;BME280;14785;52.556;13.430;2023-09-12T09:59:30;100461.22;;;27.42;100.00
27294;BME280;14785;52.556;13.430;2023-09-12T10:01:57;100456.56;;;27.82;100.00
27294;BME280;14785;52.556;13.430;2023-09-12T10:04:28;100465.00;;;28.36;100.00
27294;BME280;14785;52.556;13.430;2023-09-12T10:06:56;100462.34;;;28.06;100.00
27294;BME280;14785;52.556;13.430;2023-09-12T10:09:25;100463.38;;;28.25;100.00
27294;BME280;14785;52.556;13.430;2023-09-12T10:11:52;100462.06;;;28.08;100.00
27294;BME280;14785;52.556;13.430;2023-09-12T10:14:18;100456.03;;;27.91;100.00
27294;BME280;14785;52.556;13.430;2023-09-12T10:16:49;100444.06;;;28.80;100.00
27294;BME280;14785;52.556;13.430;2023-09-12T10:19:23;100454.00;;;28.66;100.00
27294;BME280;14785;52.556;13.430;2023-09-12T10:21:57;100445.09;;;29.43;100.00
27294;BME280;14785;52.556;13.430;2023-09-12T10:24:27;100444.50;;;30.89;100.00
27294;BME280;14785;52.556;13.430;2023-09-12T10:26:53;100443.00;;;31.71;100.00
27294;BME280;14785;52.556;13.430;2023-09-12T10:29:21;100439.44;;;32.02;100.00
27294;BME280;14785;52.556;13.430;2023-09-12T10:31:48;100435.28;;;29.76;100.00
27294;BME280;14785;52.556;13.430;2023-09-12T10:34:14;100424.75;;;29.15;100.00
27294;BME280;14785;52.556;13.430;2023-09-12T10:36:41;100422.22;;;31.09;100.00
27294;BME280;14785;52.556;13.430;2023-09-12T10:39:09;100414.69;;;32.29;100.00
27294;BME280;14785;52.556;13.430;2023-09-12T10:41:37;100420.81;;;33.08;100.00
27294;BME280;14785;52.556;13.430;2023-09-12T10:44:09;100421.19;;;33.72;100.00
27294;BME280;14785;52.556;13.430;2023-09-12T10:46:37;100417.69;;;34.11;100.00
27294;BME280;14785;52.556;13.430;2023-09-12T10:49:09;100431.53;;;34.50;100.00
27294;BME280;14785;52.556;13.430;2023-09-12T10:51:43;100424.19;;;34.93;100.00
27294;BME280;14785;52.556;13.430;2023-09-12T10:54:09;100429.06;;;34.96;100.00
27294;BME280;14785;52.556;13.430;2023-09-12T10:56:37;100428.00;;;35.40;100.00
27294;BME280;14785;52.556;13.430;2023-09-12T11:01:49;100433.44;;;34.41;100.00
27294;BME280;14785;52.556;13.430;2023-09-12T11:06:44;100429.44;;;35.37;100.00
27294;BME280;14785;52.556;13.430;2023-09-12T11:09:22;100415.16;;;33.92;100.00
27294;BME280;14785;52.556;13.430;2023-09-12T11:11:54;100423.88;;;33.28;100.00
27294;BME280;14785;52.556;13.430;2023-09-12T11:14:21;100427.81;;;33.93;100.00
27294;BME280;14785;52.556;13.430;2023-09-12T11:17:19;100418.75;;;32.18;100.00
27294;BME280;14785;52.556;13.430;2023-09-12T11:19:52;100415.34;;;33.52;100.00
27294;BME280;14785;52.556;13.430;2023-09-12T11:22:29;100419.59;;;32.19;100.00
27294;BME280;14785;52.556;13.430;2023-09-12T11:24:57;100417.63;;;30.39;100.00
27294;BME280;14785;52.556;13.430;2023-09-12T11:27:45;100415.69;;;30.63;100.00
27294;BME280;14785;52.556;13.430;2023-09-12T11:30:11;100419.00;;;30.60;100.00
27294;BME280;14785;52.556;13.430;2023-09-12T11:32:37;100420.53;;;30.71;100.00
27294;BME280;14785;52.556;13.430;2023-09-12T11:35:06;100407.66;;;31.27;100.00
27294;BME280;14785;52.556;13.430;2023-09-12T11:37:32;100412.88;;;32.79;100.00
27294;BME280;14785;52.556;13.430;2023-09-12T11:39:58;100420.38;;;33.00;100.00
27294;BME280;14785;52.556;13.430;2023-09-12T11:42:24;100411.56;;;33.92;100.00
27294;BME280;14785;52.556;13.430;2023-09-12T11:44:53;100418.16;;;32.21;100.00
27294;BME280;14785;52.556;13.430;2023-09-12T11:47:19;100419.13;;;31.34;100.00
27294;BME280;14785;52.556;13.430;2023-09-12T11:49:47;100412.84;;;30.91;100.00
27294;BME280;14785;52.556;13.430;2023-09-12T11:52:13;100416.34;;;32.71;100.00
27294;BME280;14785;52.556;13.430;2023-09-12T11:54:43;100411.59;;;34.31;100.00
27294;BME280;14785;52.556;13.430;2023-09-12T11:57:12;100408.09;;;33.56;100.00
27294;BME280;14785;52.556;13.430;2023-09-12T11:59:42;100419.53;;;34.54;100.00
27294;BME280;14785;52.556;13.430;2023-09-12T12:02:14;100415.63;;;34.64;100.00
27294;BME280;14785;52.556;13.430;2023-09-12T12:04:39;100410.72;;;32.22;100.00
27294;BME280;14785;52.556;13.430;2023-09-12T12:07:12;100413.63;;;34.47;100.00
27294;BME280;14785;52.556;13.430;2023-09-12T12:09:38;100415.38;;;34.91;100.00
27294;BME280;14785;52.556;13.430;2023-09-12T12:12:14;100401.34;;;35.98;100.00
27294;BME280;14785;52.556;13.430;2023-09-12T12:14:40;100406.88;;;35.98;100.00
27294;BME280;14785;52.556;13.430;2023-09-12T12:17:08;100407.47;;;36.29;100.00
27294;BME280;14785;52.556;13.430;2023-09-12T12:19:34;100408.59;;;34.41;100.00
27294;BME280;14785;52.556;13.430;2023-09-12T12:21:59;100407.06;;;33.74;100.00
27294;BME280;14785;52.556;13.430;2023-09-12T12:24:24;100410.84;;;35.12;100.00
27294;BME280;14785;52.556;13.430;2023-09-12T12:26:50;100407.91;;;36.40;100.00
27294;BME280;14785;52.556;13.430;2023-09-12T12:29:22;100413.28;;;36.95;100.00
27294;BME280;14785;52.556;13.430;2023-09-12T12:31:47;100421.69;;;37.07;100.00
27294;BME280;14785;52.556;13.430;2023-09-12T12:34:13;100422.50;;;37.07;100.00
27294;BME280;14785;52.556;13.430;2023-09-12T12:36:41;100420.19;;;36.13;99.57
27294;BME280;14785;52.556;13.430;2023-09-12T12:39:10;100411.66;;;36.35;100.00